createdAt,value
2023-01-19T00:01:08.580Z,86.90
2023-01-19T00:03:36.949Z,87.30
2023-01-19T00:06:07.031Z,87.50
2023-01-19T00:08:35.560Z,87.50
2023-01-19T00:11:04.100Z,87.50
2023-01-19T00:13:34.108Z,87.60
2023-01-19T00:16:02.155Z,87.80
2023-01-19T00:18:30.275Z,87.80
2023-01-19T00:20:58.796Z,87.80
2023-01-19T00:23:27.011Z,87.90
2023-01-19T00:25:55.054Z,87.80
2023-01-19T00:28:23.113Z,87.80
2023-01-19T00:30:52.920Z,87.90
2023-01-19T00:33:21.020Z,88.10
2023-01-19T00:35:53.361Z,88.20
2023-01-19T00:38:22.332Z,88.30
2023-01-19T00:40:50.522Z,88.40
2023-01-19T00:43:17.616Z,88.30
2023-01-19T00:45:46.793Z,88.40
2023-01-19T00:48:16.173Z,88.40
2023-01-19T00:50:44.204Z,88.30
2023-01-19T00:53:12.331Z,88.40
2023-01-19T00:55:40.416Z,88.50
2023-01-19T00:58:08.451Z,88.50
2023-01-19T01:00:36.700Z,88.60
2023-01-19T01:03:05.259Z,88.50
2023-01-19T01:05:34.837Z,89.50
2023-01-19T01:08:02.876Z,88.60
2023-01-19T01:10:31.129Z,88.50
2023-01-19T01:12:59.291Z,88.40
2023-01-19T01:15:29.847Z,88.40
2023-01-19T01:17:57.994Z,88.30
2023-01-19T01:20:30.199Z,88.20
2023-01-19T01:22:59.863Z,88.30
2023-01-19T01:25:30.961Z,88.30
2023-01-19T01:27:59.225Z,88.30
2023-01-19T01:30:27.301Z,88.10
2023-01-19T01:32:55.892Z,88.10
2023-01-19T01:35:24.350Z,88.30
2023-01-19T01:37:52.416Z,88.40
2023-01-19T01:40:22.079Z,88.40
2023-01-19T01:42:50.157Z,88.50
2023-01-19T01:45:33.192Z,88.60
2023-01-19T01:48:09.727Z,88.50
2023-01-19T01:51:04.186Z,88.60
2023-01-19T01:53:35.505Z,88.80
2023-01-19T01:56:12.775Z,88.90
2023-01-19T01:58:42.391Z,88.80
2023-01-19T02:01:29.313Z,89.00
2023-01-19T02:04:02.240Z,89.00
2023-01-19T02:06:30.593Z,89.00
2023-01-19T02:09:23.184Z,89.10
2023-01-19T02:12:09.965Z,89.10
2023-01-19T02:14:38.315Z,89.20
2023-01-19T02:17:07.727Z,89.00
2023-01-19T02:19:42.908Z,89.10
2023-01-19T02:22:18.898Z,89.70
2023-01-19T02:24:49.782Z,89.10
2023-01-19T02:27:18.661Z,89.00
2023-01-19T02:29:46.834Z,89.30
2023-01-19T02:32:14.999Z,89.20
2023-01-19T02:34:43.135Z,89.30
2023-01-19T02:37:15.778Z,89.40
2023-01-19T02:39:50.682Z,89.40
2023-01-19T02:42:25.182Z,89.30
2023-01-19T02:44:57.236Z,89.40
2023-01-19T02:47:25.894Z,89.50
2023-01-19T02:49:58.179Z,89.60
2023-01-19T02:52:28.147Z,89.80
2023-01-19T02:55:11.182Z,89.80
2023-01-19T02:58:02.206Z,90.00
2023-01-19T03:00:41.492Z,90.10
2023-01-19T03:03:30.575Z,90.10
2023-01-19T03:06:09.707Z,90.20
2023-01-19T03:08:51.382Z,90.20
2023-01-19T03:11:21.513Z,90.20
2023-01-19T03:13:54.525Z,90.20
2023-01-19T03:16:28.959Z,90.40
2023-01-19T03:19:05.430Z,90.30
2023-01-19T03:21:37.831Z,90.40
2023-01-19T03:24:11.922Z,90.40
2023-01-19T03:26:48.064Z,90.40
2023-01-19T03:29:19.348Z,90.50
2023-01-19T03:31:51.416Z,90.40
2023-01-19T03:34:23.925Z,90.40
2023-01-19T03:36:58.779Z,90.40
2023-01-19T03:39:29.862Z,90.30
2023-01-19T03:42:05.950Z,90.30
2023-01-19T03:44:40.263Z,90.20
2023-01-19T03:47:12.641Z,90.10
2023-01-19T03:49:44.146Z,90.00
2023-01-19T03:52:13.407Z,89.80
2023-01-19T03:54:42.126Z,90.00
2023-01-19T03:57:11.563Z,90.00
2023-01-19T03:59:39.648Z,90.00
2023-01-19T04:02:07.869Z,90.10
2023-01-19T04:04:35.923Z,90.00
2023-01-19T04:07:03.952Z,90.10
2023-01-19T04:09:31.979Z,90.10
2023-01-19T04:12:01.487Z,90.70
2023-01-19T04:14:30.955Z,90.30
2023-01-19T04:16:59.000Z,90.30
2023-01-19T04:19:27.091Z,90.40
2023-01-19T04:21:55.649Z,90.40
2023-01-19T04:24:23.732Z,90.50
2023-01-19T04:26:53.798Z,90.60
2023-01-19T04:29:21.886Z,90.60
2023-01-19T04:31:51.229Z,90.60
2023-01-19T04:34:19.271Z,90.60
2023-01-19T04:36:50.914Z,90.60
2023-01-19T04:39:18.971Z,90.60
2023-01-19T04:41:46.988Z,90.50
2023-01-19T04:44:15.430Z,90.40
2023-01-19T04:46:43.524Z,90.10
2023-01-19T04:49:13.156Z,90.10
2023-01-19T04:51:41.188Z,89.60
2023-01-19T04:54:09.855Z,89.30
2023-01-19T04:56:38.400Z,89.60
2023-01-19T04:59:06.429Z,89.60
2023-01-19T05:01:34.647Z,89.90
2023-01-19T05:04:05.091Z,89.70
2023-01-19T05:06:35.229Z,89.90
2023-01-19T05:09:03.352Z,90.00
2023-01-19T05:11:31.400Z,90.10
2023-01-19T05:13:59.403Z,90.00
2023-01-19T05:16:27.491Z,90.00
2023-01-19T05:18:55.565Z,90.10
2023-01-19T05:21:23.617Z,90.20
2023-01-19T05:23:53.081Z,89.80
2023-01-19T05:26:21.133Z,90.00
2023-01-19T05:28:50.262Z,89.60
2023-01-19T05:31:19.608Z,89.80
2023-01-19T05:33:48.255Z,90.00
2023-01-19T05:36:16.331Z,89.80
2023-01-19T05:38:44.384Z,90.00
2023-01-19T05:41:14.178Z,89.60
2023-01-19T05:43:42.242Z,89.60
2023-01-19T05:46:10.396Z,89.20
2023-01-19T05:48:39.107Z,89.30
2023-01-19T05:51:07.686Z,89.40
2023-01-19T05:53:35.736Z,89.40
2023-01-19T05:56:06.085Z,89.60
2023-01-19T05:58:36.171Z,89.70
2023-01-19T06:01:05.887Z,89.80
2023-01-19T06:03:35.475Z,89.30
2023-01-19T06:06:04.954Z,89.30
2023-01-19T06:08:32.976Z,89.60
2023-01-19T06:11:01.084Z,89.20
2023-01-19T06:13:29.098Z,89.00
2023-01-19T06:16:03.386Z,89.00
2023-01-19T06:18:31.565Z,89.30
2023-01-19T06:20:59.620Z,90.00
2023-01-19T06:23:30.201Z,88.50
2023-01-19T06:25:58.667Z,88.90
2023-01-19T06:28:26.883Z,88.80
2023-01-19T06:30:56.725Z,89.00
2023-01-19T06:33:27.822Z,88.80
2023-01-19T06:35:56.567Z,89.20
2023-01-19T06:38:24.758Z,89.10
2023-01-19T06:40:58.663Z,88.80
2023-01-19T06:43:27.897Z,88.70
2023-01-19T06:45:56.913Z,88.60
2023-01-19T06:48:26.298Z,88.60
2023-01-19T06:50:54.294Z,88.30
2023-01-19T06:53:22.447Z,88.50
2023-01-19T06:55:50.548Z,88.00
2023-01-19T06:58:18.802Z,88.60
2023-01-19T07:00:46.904Z,88.20
2023-01-19T07:03:21.347Z,88.20
2023-01-19T07:05:53.270Z,87.90
2023-01-19T07:08:21.769Z,88.00
2023-01-19T07:11:26.742Z,88.30
2023-01-19T07:13:41.066Z,88.10
2023-01-19T07:16:12.571Z,88.50
2023-01-19T07:18:41.868Z,88.30
2023-01-19T07:21:11.726Z,88.10
2023-01-19T07:23:39.740Z,87.80
2023-01-19T07:26:11.715Z,87.50
2023-01-19T07:28:39.768Z,87.40
2023-01-19T07:31:08.867Z,88.00
2023-01-19T07:33:37.069Z,88.30
2023-01-19T07:36:05.654Z,88.60
2023-01-19T07:38:35.095Z,88.90
2023-01-19T07:41:03.817Z,88.60
2023-01-19T07:43:32.398Z,88.10
2023-01-19T07:46:03.317Z,88.60
2023-01-19T07:48:31.582Z,88.80
2023-01-19T07:51:01.963Z,88.80
2023-01-19T07:53:31.257Z,88.90
2023-01-19T07:56:00.929Z,88.60
2023-01-19T07:58:30.512Z,88.60
2023-01-19T08:00:58.638Z,88.90
2023-01-19T08:03:26.826Z,88.90
2023-01-19T08:05:56.945Z,89.90
2023-01-19T08:08:25.352Z,88.60
2023-01-19T08:10:54.154Z,88.70
2023-01-19T08:13:23.615Z,88.90
2023-01-19T08:15:52.943Z,89.00
2023-01-19T08:18:21.899Z,89.20
2023-01-19T08:20:50.097Z,89.20
2023-01-19T08:23:19.608Z,89.10
2023-01-19T08:25:47.862Z,89.30
2023-01-19T08:28:18.011Z,89.40
2023-01-19T08:30:53.990Z,89.30
2023-01-19T08:33:23.652Z,89.20
2023-01-19T08:35:54.319Z,89.20
2023-01-19T08:38:22.750Z,89.20
2023-01-19T08:40:50.883Z,89.50
2023-01-19T08:43:19.160Z,89.40
2023-01-19T08:45:53.748Z,89.40
2023-01-19T08:48:23.548Z,89.60
2023-01-19T08:50:53.375Z,89.50
2023-01-19T08:53:24.089Z,89.30
2023-01-19T08:55:57.296Z,89.30
2023-01-19T08:58:25.346Z,89.30
2023-01-19T09:00:55.048Z,89.00
2023-01-19T09:03:23.587Z,89.50
2023-01-19T09:05:52.260Z,89.10
2023-01-19T09:08:20.678Z,88.60
2023-01-19T09:10:51.359Z,88.20
2023-01-19T09:13:22.143Z,87.40
2023-01-19T09:15:50.464Z,87.10
2023-01-19T09:18:22.988Z,86.80
2023-01-19T09:20:52.045Z,86.60
2023-01-19T09:23:22.576Z,86.70
2023-01-19T09:25:57.674Z,87.20
2023-01-19T09:28:25.747Z,86.10
2023-01-19T09:30:54.386Z,86.40
2023-01-19T09:33:25.549Z,86.80
2023-01-19T09:35:53.884Z,86.50
2023-01-19T09:38:22.385Z,87.00
2023-01-19T09:40:54.312Z,87.00
2023-01-19T09:43:40.742Z,86.90
2023-01-19T09:46:16.827Z,87.30
2023-01-19T09:48:50.904Z,87.40
2023-01-19T09:51:23.210Z,87.90
2023-01-19T09:54:09.076Z,88.40
2023-01-19T09:56:37.747Z,88.80
2023-01-19T09:59:22.246Z,89.10
2023-01-19T10:02:19.240Z,89.50
2023-01-19T10:05:00.848Z,89.50
2023-01-19T10:07:58.299Z,89.60
2023-01-19T10:10:29.078Z,89.40
2023-01-19T10:13:12.530Z,89.60
2023-01-19T10:15:56.773Z,89.90
2023-01-19T10:18:33.062Z,90.60
2023-01-19T10:21:11.472Z,90.40
2023-01-19T10:23:47.175Z,90.60
2023-01-19T10:26:19.182Z,90.80
2023-01-19T10:28:52.229Z,91.10
2023-01-19T10:31:24.881Z,91.50
2023-01-19T10:33:54.809Z,91.80
2023-01-19T10:36:34.811Z,92.20
2023-01-19T10:39:08.892Z,92.40
2023-01-19T10:41:44.284Z,92.70
2023-01-19T10:44:12.608Z,93.10
2023-01-19T10:46:47.153Z,93.40
2023-01-19T10:49:28.298Z,93.70
2023-01-19T10:52:00.151Z,93.80
2023-01-19T10:54:31.127Z,93.90
2023-01-19T10:57:03.279Z,94.00
2023-01-19T10:59:38.669Z,93.80
2023-01-19T11:02:20.580Z,93.70
2023-01-19T11:04:51.359Z,93.90
2023-01-19T11:07:24.624Z,93.80
2023-01-19T11:10:21.942Z,93.50
2023-01-19T11:13:02.166Z,93.50
2023-01-19T11:15:41.818Z,93.30
2023-01-19T11:18:23.244Z,93.20
2023-01-19T11:20:55.419Z,93.20
2023-01-19T11:23:29.284Z,93.10
2023-01-19T11:26:02.689Z,93.10
2023-01-19T11:28:36.390Z,93.20
2023-01-19T11:31:18.780Z,93.20
2023-01-19T11:33:53.069Z,93.10
2023-01-19T11:36:24.186Z,93.10
2023-01-19T11:38:54.379Z,93.00
2023-01-19T11:41:29.467Z,93.00
2023-01-19T11:44:03.718Z,93.10
2023-01-19T11:46:37.532Z,92.90
2023-01-19T11:49:14.765Z,92.90
2023-01-19T11:51:53.127Z,92.90
2023-01-19T11:54:27.931Z,92.90
2023-01-19T11:57:00.972Z,93.00
2023-01-19T11:59:29.816Z,92.90
2023-01-19T12:02:06.020Z,92.80
2023-01-19T12:04:40.130Z,92.90
2023-01-19T12:07:12.141Z,92.80
2023-01-19T12:09:45.275Z,92.90
2023-01-19T12:12:32.115Z,92.90
2023-01-19T12:15:07.112Z,93.00
2023-01-19T12:17:41.566Z,93.20
2023-01-19T12:20:27.305Z,93.50
2023-01-19T12:23:15.368Z,93.70
2023-01-19T12:26:04.819Z,94.00
2023-01-19T12:28:41.870Z,94.30
2023-01-19T12:31:10.820Z,94.80
2023-01-19T12:33:41.342Z,95.00
2023-01-19T12:36:36.605Z,95.00
2023-01-19T12:39:13.755Z,95.10
2023-01-19T12:41:43.015Z,95.20
2023-01-19T12:44:33.950Z,95.50
2023-01-19T12:47:20.153Z,95.60
2023-01-19T12:49:52.915Z,95.70
2023-01-19T12:52:29.015Z,95.90
2023-01-19T12:55:07.567Z,96.00
2023-01-19T12:57:43.087Z,96.00
2023-01-19T13:00:33.565Z,95.90
2023-01-19T13:03:04.364Z,96.10
2023-01-19T13:05:59.739Z,96.20
2023-01-19T13:08:59.163Z,96.20
2023-01-19T13:11:31.367Z,96.30
2023-01-19T13:14:36.529Z,96.30
2023-01-19T13:17:34.082Z,96.40
2023-01-19T13:20:29.448Z,96.50
2023-01-19T13:23:26.711Z,96.60
2023-01-19T13:26:07.437Z,96.50
2023-01-19T13:28:43.369Z,96.60
2023-01-19T13:31:13.647Z,96.70
2023-01-19T13:33:51.186Z,96.80
2023-01-19T13:36:27.187Z,96.70
2023-01-19T13:38:57.658Z,96.60
2023-01-19T13:41:30.453Z,96.40
2023-01-19T13:44:04.168Z,96.60
2023-01-19T13:46:34.232Z,96.90
2023-01-19T13:49:16.447Z,96.90
2023-01-19T13:51:44.553Z,97.20
2023-01-19T13:54:17.911Z,96.90
2023-01-19T13:56:50.073Z,96.80
2023-01-19T13:59:18.253Z,96.70
2023-01-19T14:01:48.275Z,96.70
2023-01-19T14:04:30.281Z,96.70
2023-01-19T14:07:03.487Z,96.70
2023-01-19T14:09:31.994Z,96.50
2023-01-19T14:12:12.998Z,96.50
2023-01-19T14:14:41.593Z,96.60
2023-01-19T14:17:26.278Z,96.70
2023-01-19T14:19:57.938Z,96.70
2023-01-19T14:22:43.300Z,96.70
2023-01-19T14:25:29.655Z,96.70
2023-01-19T14:28:39.179Z,96.90
2023-01-19T14:31:22.430Z,96.90
2023-01-19T14:33:53.820Z,96.90
2023-01-19T14:36:39.111Z,96.90
2023-01-19T14:39:24.111Z,97.00
2023-01-19T14:41:54.150Z,97.00
2023-01-19T14:44:30.549Z,97.10
2023-01-19T14:47:00.119Z,97.00
2023-01-19T14:49:35.127Z,97.10
2023-01-19T14:52:17.145Z,97.20
2023-01-19T14:54:47.999Z,97.20
2023-01-19T14:57:16.478Z,97.30
2023-01-19T14:59:49.457Z,97.10
2023-01-19T15:02:19.417Z,97.20
2023-01-19T15:04:48.912Z,97.30
2023-01-19T15:07:20.665Z,97.20
2023-01-19T15:09:49.225Z,97.30
2023-01-19T15:12:20.686Z,97.30
2023-01-19T15:14:48.832Z,97.30
2023-01-19T15:17:25.337Z,97.20
2023-01-19T15:19:54.992Z,97.20
2023-01-19T15:22:29.247Z,97.30
2023-01-19T15:24:59.925Z,97.30
2023-01-19T15:27:28.400Z,97.30
2023-01-19T15:29:56.559Z,97.30
2023-01-19T15:32:24.671Z,97.30
2023-01-19T15:34:52.734Z,97.30
2023-01-19T15:37:20.750Z,97.30
2023-01-19T15:39:50.275Z,97.30
2023-01-19T15:42:18.284Z,97.30
2023-01-19T15:44:46.799Z,97.20
2023-01-19T15:47:14.844Z,97.20
2023-01-19T15:49:42.876Z,97.60
2023-01-19T15:52:10.923Z,97.10
2023-01-19T15:54:39.002Z,97.10
2023-01-19T15:57:09.314Z,97.00
2023-01-19T15:59:37.360Z,97.00
2023-01-19T16:02:05.829Z,97.00
2023-01-19T16:04:34.050Z,96.90
2023-01-19T16:07:02.076Z,96.90
2023-01-19T16:09:30.079Z,96.90
2023-01-19T16:11:58.129Z,96.90
2023-01-19T16:14:27.894Z,96.90
2023-01-19T16:16:59.200Z,97.00
2023-01-19T16:19:27.420Z,96.80
2023-01-19T16:21:55.442Z,96.80
2023-01-19T16:24:23.490Z,96.80
2023-01-19T16:26:51.695Z,96.70
2023-01-19T16:29:19.744Z,96.70
2023-01-19T16:31:49.262Z,96.70
2023-01-19T16:34:18.051Z,96.50
2023-01-19T16:36:46.114Z,96.60
2023-01-19T16:39:16.112Z,96.50
2023-01-19T16:41:45.845Z,96.90
2023-01-19T16:44:16.240Z,96.60
2023-01-19T16:46:49.646Z,96.50
2023-01-19T16:49:21.055Z,96.50
2023-01-19T16:51:50.488Z,96.50
2023-01-19T16:54:21.934Z,96.50
2023-01-19T16:56:50.639Z,96.50
2023-01-19T16:59:20.930Z,96.40
2023-01-19T17:01:52.489Z,96.40
2023-01-19T17:04:23.104Z,96.40
2023-01-19T17:06:51.256Z,96.40
2023-01-19T17:09:19.429Z,96.40
2023-01-19T17:11:47.858Z,96.40
2023-01-19T17:14:20.261Z,96.40
2023-01-19T17:16:50.485Z,96.40
2023-01-19T17:19:22.099Z,96.40
2023-01-19T17:21:51.253Z,96.40
2023-01-19T17:24:19.995Z,96.40
2023-01-19T17:26:48.657Z,96.50
2023-01-19T17:29:18.231Z,96.30
2023-01-19T17:31:46.903Z,96.30
2023-01-19T17:34:16.443Z,96.30
2023-01-19T17:36:45.094Z,96.30
2023-01-19T17:39:16.778Z,96.40
2023-01-19T17:41:45.151Z,96.40
2023-01-19T17:44:13.324Z,96.30
2023-01-19T17:46:41.743Z,96.70
2023-01-19T17:49:09.929Z,96.30
2023-01-19T17:51:39.648Z,96.30
2023-01-19T17:54:08.007Z,96.30
2023-01-19T17:56:38.607Z,96.20
2023-01-19T17:59:08.092Z,96.20
2023-01-19T18:01:40.329Z,96.10
2023-01-19T18:04:10.020Z,96.10
2023-01-19T18:06:40.173Z,96.20
2023-01-19T18:09:08.496Z,96.10
2023-01-19T18:11:37.224Z,96.10
2023-01-19T18:14:06.587Z,96.10
2023-01-19T18:16:35.052Z,96.00
2023-01-19T18:19:03.237Z,96.00
2023-01-19T18:21:31.322Z,96.00
2023-01-19T18:24:03.860Z,96.00
2023-01-19T18:26:33.986Z,95.90
2023-01-19T18:29:02.543Z,95.90
2023-01-19T18:31:31.038Z,95.90
2023-01-19T18:33:59.396Z,95.80
2023-01-19T18:36:28.077Z,95.80
2023-01-19T18:38:56.397Z,95.80
2023-01-19T18:41:25.939Z,95.70
2023-01-19T18:43:59.576Z,95.70
2023-01-19T18:46:28.282Z,95.80
2023-01-19T18:48:56.447Z,95.80
2023-01-19T18:51:24.661Z,95.80
2023-01-19T18:53:52.857Z,95.80
2023-01-19T18:56:21.044Z,95.70
2023-01-19T18:58:52.226Z,95.70
2023-01-19T19:01:25.634Z,95.80
2023-01-19T19:03:55.674Z,95.70
2023-01-19T19:06:27.024Z,95.70
2023-01-19T19:08:57.587Z,95.70
2023-01-19T19:11:26.414Z,95.70
2023-01-19T19:13:58.408Z,95.60
2023-01-19T19:16:27.115Z,95.60
2023-01-19T19:18:55.482Z,95.60
2023-01-19T19:21:25.664Z,95.70
2023-01-19T19:23:55.333Z,95.60
2023-01-19T19:26:25.602Z,95.70
2023-01-19T19:28:55.100Z,95.70
2023-01-19T19:31:26.148Z,95.70
2023-01-19T19:33:56.199Z,95.70
2023-01-19T19:36:27.432Z,95.70
2023-01-19T19:38:55.906Z,95.80
2023-01-19T19:41:27.503Z,95.70
2023-01-19T19:43:57.396Z,95.70
2023-01-19T19:46:27.117Z,95.70
2023-01-19T19:48:55.848Z,95.70
2023-01-19T19:51:27.077Z,95.70
2023-01-19T19:53:56.800Z,95.70
2023-01-19T19:56:27.990Z,95.70
2023-01-19T19:59:00.006Z,95.80
2023-01-19T20:01:33.463Z,95.70
2023-01-19T20:04:08.548Z,95.60
2023-01-19T20:06:39.881Z,95.60
2023-01-19T20:09:12.577Z,95.60
2023-01-19T20:11:42.183Z,95.60
2023-01-19T20:14:16.024Z,95.60
2023-01-19T20:16:44.557Z,95.60
2023-01-19T20:19:12.820Z,95.60
2023-01-19T20:21:42.968Z,95.70
2023-01-19T20:24:15.591Z,95.60
2023-01-19T20:26:47.567Z,95.60
2023-01-19T20:29:17.433Z,95.60
2023-01-19T20:31:50.273Z,95.60
2023-01-19T20:34:23.334Z,95.50
2023-01-19T20:36:53.706Z,95.50
2023-01-19T20:39:23.773Z,95.50
2023-01-19T20:41:52.542Z,95.60
2023-01-19T20:44:25.806Z,95.40
2023-01-19T20:46:55.398Z,95.50
2023-01-19T20:49:24.156Z,95.40
2023-01-19T20:51:53.391Z,95.50
2023-01-19T20:54:26.202Z,95.50
2023-01-19T20:56:55.340Z,95.60
2023-01-19T20:59:25.098Z,95.60
2023-01-19T21:01:53.369Z,95.60
2023-01-19T21:04:22.322Z,95.60
2023-01-19T21:06:50.542Z,95.60
2023-01-19T21:09:18.964Z,95.60
2023-01-19T21:11:47.094Z,95.50
2023-01-19T21:14:15.211Z,95.50
2023-01-19T21:16:44.744Z,95.50
2023-01-19T21:19:13.198Z,95.50
2023-01-19T21:21:41.448Z,95.60
2023-01-19T21:24:11.790Z,95.60
2023-01-19T21:26:41.629Z,95.70
2023-01-19T21:29:14.001Z,95.70
2023-01-19T21:31:42.674Z,95.70
2023-01-19T21:34:12.307Z,95.70
2023-01-19T21:36:40.439Z,95.70
2023-01-19T21:39:09.085Z,95.70
2023-01-19T21:41:40.858Z,95.60
2023-01-19T21:44:09.006Z,95.60
2023-01-19T21:46:37.164Z,95.60
2023-01-19T21:49:07.266Z,95.70
2023-01-19T21:51:37.996Z,95.60
2023-01-19T21:54:07.784Z,95.60
2023-01-19T21:56:37.863Z,95.70
2023-01-19T21:59:07.434Z,95.60
2023-01-19T22:01:36.141Z,95.50
2023-01-19T22:04:04.442Z,95.50
2023-01-19T22:06:32.601Z,95.40
2023-01-19T22:09:02.015Z,95.50
2023-01-19T22:11:30.455Z,95.50
2023-01-19T22:13:59.580Z,96.00
2023-01-19T22:16:29.199Z,95.60
2023-01-19T22:19:01.006Z,95.80
2023-01-19T22:21:31.969Z,95.70
2023-01-19T22:24:03.370Z,95.80
2023-01-19T22:26:34.000Z,95.80
2023-01-19T22:29:04.171Z,95.80
2023-01-19T22:31:33.069Z,95.70
2023-01-19T22:34:01.228Z,95.80
2023-01-19T22:36:33.759Z,95.70
2023-01-19T22:39:06.698Z,95.80
2023-01-19T22:41:37.833Z,95.70
2023-01-19T22:44:08.843Z,95.80
2023-01-19T22:46:38.582Z,95.80
2023-01-19T22:49:09.112Z,95.80
2023-01-19T22:51:38.080Z,95.70
2023-01-19T22:54:07.910Z,95.70
2023-01-19T22:56:38.269Z,95.70
2023-01-19T22:59:07.966Z,95.60
2023-01-19T23:01:38.645Z,95.60
2023-01-19T23:04:08.536Z,95.60
2023-01-19T23:06:38.135Z,95.60
2023-01-19T23:09:13.519Z,95.60
2023-01-19T23:11:44.686Z,95.60
2023-01-19T23:14:18.002Z,95.60
2023-01-19T23:16:47.054Z,95.60
2023-01-19T23:19:17.291Z,95.50
2023-01-19T23:21:46.555Z,95.50
2023-01-19T23:24:15.938Z,95.60
2023-01-19T23:26:44.004Z,95.60
2023-01-19T23:29:14.878Z,95.50
2023-01-19T23:31:46.325Z,96.00
2023-01-19T23:34:17.312Z,95.60
2023-01-19T23:36:46.401Z,95.60
2023-01-19T23:39:18.677Z,95.60
2023-01-19T23:41:47.544Z,95.60
2023-01-19T23:44:18.007Z,95.60
2023-01-19T23:46:47.061Z,95.70
2023-01-19T23:49:15.426Z,95.60
2023-01-19T23:51:43.739Z,95.60
2023-01-19T23:54:12.802Z,95.60
2023-01-19T23:56:43.081Z,95.40
2023-01-19T23:59:14.227Z,95.40
